CheckWX is a tool to help pilots better visualize weather data.  It is not intended as a substitute for an official pre-flight weather briefing.

04:19:34 UTC

KSTJ METAR
Rosecrans Memorial Airport
St Joseph, Missouri, USA
Current

27 mins ago

KSTJ 270353Z AUTO 12004KT 10SM CLR 24/19 A3006 RMK AO2 SLP172 T02440194
Observed
Jun-27 @ 03:53 UTC
Wind
  • 120° at 4 KTS
Visibility
10 SM
Flight Rules
VFR
Cloud Levels
  • Clear skies
Temperature
24°C / 75°F
Dewpoint
19°C / 66°F
Humidity
74%
Altimeter
30.06" Hg
Pressure
1017.92 hPa
Previous

1 hour ago

KSTJ 270253Z AUTO 14004KT 10SM CLR 25/20 A3005 RMK AO2 SLP168 T02500200 51013
Observed
Jun-27 @ 02:53 UTC
Wind
  • 140° at 4 KTS
Visibility
10 SM
Flight Rules
VFR
Cloud Levels
  • Clear skies
Temperature
25°C / 77°F
Dewpoint
20°C / 68°F
Humidity
74%
Altimeter
30.05" Hg
Pressure
1017.62 hPa
Previous

2 hours ago

KSTJ 270153Z AUTO 12006KT 10SM FEW002 27/19 A3004 RMK AO2 SLP163 T02670194
Observed
Jun-27 @ 01:53 UTC
Wind
  • 120° at 6 KTS
Visibility
10 SM
Flight Rules
VFR
Cloud Levels
  • Few at 200' AGL
Temperature
27°C / 81°F
Dewpoint
19°C / 66°F
Heat Index
28°C / 83°F
Humidity
62%
Altimeter
30.04" Hg
Pressure
1017.32 hPa